Aérodrome :
LOGIN :

S'inscrire | Disclaimer

   EN    FR    IT 

 










Légende :    VFR   VFR Marginal   IFR   IFR Intensif   IFR Très Intensif
Visi : 
Plafond : 
>= 8 km
>= 3000ft
5 à 8 km
1000 à 3000 ft
1500m à 5 km
500 à 1000 ft
800 à 1500m
200 à 500 ft
< 800m
< 200 ft
Symboles :   Orages  Brouillard  Fortes neiges  Fortes précipitations  Vent > 20 kt
SIGMETs :   Divers  Orages  Givrage  Turbulence  Onde Orograph.  Cendres Volcan.







- Altitude de l'aérodrome : 659 ft
- Code IATA : LGG


EBLG - Liège

DERNIER METAR :
  • 291250Z 27008KT 230V290 CAVOK 30/16 Q1012 NOSIG

METARs EXPIRÉS :
  • 291220Z 25010KT CAVOK 30/16 Q1012 NOSIG
  • 291150Z 25009KT 220V280 CAVOK 30/16 Q1012 NOSIG
  • 291120Z 24008KT 190V270 CAVOK 30/15 Q1012 NOSIG
  • 291050Z 21009KT 160V280 CAVOK 29/14 Q1012 NOSIG
  • 291020Z 20009KT CAVOK 29/16 Q1012 NOSIG

TAF TAF EBLG
Valide du 29 à 12h jusqu'au 30 à 18h UTC


291110Z 2912/3018 29010KT 9999 FEW045
TEMPO 2914/3002 VRB15G35KT 3000 SHRA TSRAGR
PROB30
TEMPO 3002/3006 3000 RA SHRA
PROB40
TEMPO 3004/3008 BKN011
PROB30
TEMPO 3009/3012 SHRA TSRA
Pas de NOTAMs connus pour ce terrain.



MET'MAP, la Météo Aéronautique d'un coup d'oeil ! - Copyright ORBIFLY Décembre 2007 - Disclaimer

ORBIFLY MET'MAP TEAM :

Programmation & Développement : Alexandra Zaïnal
Conception & Développement : Baudouin d'Aumeries
Co-Programmation & Développement : Marc-Olivier Méhu
Soutien technique & logistique : Manuel Goepfert

Contact : metmap@orbifly.com




SOURCES & CREDITS :

   NOAA